TimeCST,TemperatureF,Dew PointF,Humidity,Sea Level PressureIn,VisibilityMPH,Wind Direction,Wind SpeedMPH,Gust SpeedMPH,PrecipitationIn,Events,Conditions,WindDirDegrees,DateUTC
12:05 AM,32.0,30.2,93,30.18,0.5,Calm,Calm,-,N/A,Fog,Light Freezing Fog,0,2012-11-08 06:05:00
12:25 AM,32.0,32.0,100,30.18,0.2,Calm,Calm,-,N/A,Fog,Fog,0,2012-11-08 06:25:00
1:05 AM,30.2,28.4,93,30.18,0.5,WNW,3.5,-,N/A,Fog,Light Freezing Fog,290,2012-11-08 07:05:00
1:25 AM,30.2,28.4,93,30.19,0.2,Calm,Calm,-,N/A,Fog,Light Freezing Fog,0,2012-11-08 07:25:00
1:45 AM,30.2,28.4,93,30.19,1.0,WNW,3.5,-,N/A,,Mostly Cloudy,300,2012-11-08 07:45:00
2:05 AM,30.2,28.4,93,30.20,1.2,Calm,Calm,-,N/A,,Clear,0,2012-11-08 08:05:00
2:25 AM,28.4,28.4,100,30.21,5.0,Calm,Calm,-,N/A,,Clear,0,2012-11-08 08:25:00
2:45 AM,30.2,28.4,93,30.21,8.0,Calm,Calm,-,N/A,,Clear,0,2012-11-08 08:45:00
3:05 AM,30.2,28.4,93,30.21,10.0,Calm,Calm,-,N/A,,Clear,0,2012-11-08 09:05:00
3:25 AM,30.2,28.4,93,30.21,9.0,Calm,Calm,-,N/A,,Mostly Cloudy,0,2012-11-08 09:25:00
3:45 AM,32.0,30.2,93,30.21,0.2,Calm,Calm,-,N/A,Fog,Light Freezing Fog,0,2012-11-08 09:45:00
4:05 AM,30.2,28.4,93,30.21,0.2,Calm,Calm,-,N/A,Fog,Light Freezing Fog,0,2012-11-08 10:05:00
4:25 AM,28.4,28.4,100,30.22,0.2,Calm,Calm,-,N/A,Fog,Light Freezing Fog,0,2012-11-08 10:25:00
4:45 AM,28.4,28.4,100,30.22,0.2,Calm,Calm,-,N/A,Fog,Light Freezing Fog,0,2012-11-08 10:45:00
5:05 AM,28.4,28.4,100,30.23,0.2,Calm,Calm,-,N/A,Fog,Light Freezing Fog,0,2012-11-08 11:05:00
5:45 AM,28.4,26.6,93,30.23,0.2,Calm,Calm,-,N/A,Fog,Light Freezing Fog,0,2012-11-08 11:45:00
6:05 AM,28.4,26.6,93,30.24,1.0,Calm,Calm,-,N/A,,Overcast,0,2012-11-08 12:05:00
6:45 AM,28.4,26.6,93,30.25,0.5,Calm,Calm,-,N/A,Fog,Light Freezing Fog,0,2012-11-08 12:45:00
7:05 AM,28.4,28.4,100,30.26,3.0,Calm,Calm,-,N/A,,Mostly Cloudy,0,2012-11-08 13:05:00
7:25 AM,32.0,30.2,93,30.27,5.0,Calm,Calm,-,N/A,,Mostly Cloudy,0,2012-11-08 13:25:00
7:45 AM,33.8,32.0,93,30.28,3.0,Calm,Calm,-,N/A,,Partly Cloudy,0,2012-11-08 13:45:00
8:05 AM,35.6,35.6,100,30.28,4.0,Calm,Calm,-,N/A,,Partly Cloudy,0,2012-11-08 14:05:00
8:25 AM,39.2,37.4,93,30.29,5.0,Calm,Calm,-,N/A,,Partly Cloudy,0,2012-11-08 14:25:00
8:45 AM,39.2,39.2,100,30.29,7.0,Calm,Calm,-,N/A,,Clear,0,2012-11-08 14:45:00
9:05 AM,41.0,41.0,100,30.30,8.0,Calm,Calm,-,N/A,,Clear,0,2012-11-08 15:05:00
9:25 AM,44.6,41.0,87,30.29,10.0,Calm,Calm,-,N/A,,Clear,0,2012-11-08 15:25:00
9:45 AM,48.2,39.2,71,30.29,10.0,Calm,Calm,-,N/A,,Clear,0,2012-11-08 15:45:00
10:05 AM,50.0,37.4,62,30.29,10.0,Calm,Calm,-,N/A,,Clear,0,2012-11-08 16:05:00
10:25 AM,51.8,37.4,58,30.28,10.0,SE,3.5,-,N/A,,Clear,130,2012-11-08 16:25:00
10:45 AM,51.8,35.6,54,30.27,10.0,Calm,Calm,-,N/A,,Clear,0,2012-11-08 16:45:00
11:05 AM,53.6,35.6,51,30.27,10.0,Calm,Calm,-,N/A,,Clear,0,2012-11-08 17:05:00
11:25 AM,53.6,33.8,47,30.25,10.0,SSW,4.6,-,N/A,,Clear,210,2012-11-08 17:25:00
11:45 AM,55.4,35.6,47,30.24,10.0,Calm,Calm,-,N/A,,Clear,0,2012-11-08 17:45:00
12:05 PM,55.4,35.6,47,30.23,10.0,NE,5.8,-,N/A,,Clear,50,2012-11-08 18:05:00
12:25 PM,57.2,35.6,44,30.23,10.0,Calm,Calm,-,N/A,,Clear,0,2012-11-08 18:25:00
12:45 PM,57.2,35.6,44,30.22,10.0,South,3.5,-,N/A,,Clear,180,2012-11-08 18:45:00
1:05 PM,57.2,35.6,44,30.22,10.0,Calm,Calm,-,N/A,,Clear,0,2012-11-08 19:05:00
1:25 PM,57.2,32.0,38,30.21,10.0,Calm,Calm,-,N/A,,Clear,0,2012-11-08 19:25:00
1:45 PM,57.2,32.0,38,30.21,10.0,Calm,Calm,-,N/A,,Clear,0,2012-11-08 19:45:00
2:05 PM,57.2,32.0,38,30.20,10.0,South,3.5,-,N/A,,Clear,180,2012-11-08 20:05:00
2:25 PM,57.2,32.0,38,30.20,10.0,Calm,Calm,-,N/A,,Clear,0,2012-11-08 20:25:00
2:45 PM,57.2,32.0,38,30.20,10.0,Calm,Calm,-,N/A,,Clear,0,2012-11-08 20:45:00
3:05 PM,59.0,33.8,39,30.20,10.0,Calm,Calm,-,N/A,,Clear,0,2012-11-08 21:05:00
3:25 PM,59.0,33.8,39,30.20,10.0,Calm,Calm,-,N/A,,Clear,0,2012-11-08 21:25:00
3:45 PM,57.2,32.0,38,30.19,10.0,Calm,Calm,-,N/A,,Clear,0,2012-11-08 21:45:00
4:05 PM,57.2,33.8,41,30.19,10.0,SSE,3.5,-,N/A,,Clear,150,2012-11-08 22:05:00
4:25 PM,55.4,35.6,47,30.19,10.0,SE,3.5,-,N/A,,Clear,130,2012-11-08 22:25:00
4:45 PM,55.4,35.6,47,30.18,10.0,SE,3.5,-,N/A,,Clear,130,2012-11-08 22:45:00
5:05 PM,53.6,35.6,51,30.19,10.0,Calm,Calm,-,N/A,,Clear,0,2012-11-08 23:05:00
5:25 PM,50.0,35.6,58,30.19,10.0,Calm,Calm,-,N/A,,Clear,0,2012-11-08 23:25:00
5:45 PM,46.4,37.4,71,30.20,10.0,Calm,Calm,-,N/A,,Clear,0,2012-11-08 23:45:00
6:05 PM,44.6,35.6,71,30.20,10.0,Calm,Calm,-,N/A,,Clear,0,2012-11-09 00:05:00
6:25 PM,44.6,35.6,71,30.20,10.0,Calm,Calm,-,N/A,,Clear,0,2012-11-09 00:25:00
6:45 PM,44.6,35.6,71,30.20,10.0,Calm,Calm,-,N/A,,Clear,0,2012-11-09 00:45:00
7:05 PM,41.0,35.6,81,30.20,10.0,Calm,Calm,-,N/A,,Clear,0,2012-11-09 01:05:00
7:25 PM,41.0,35.6,81,30.20,10.0,Calm,Calm,-,N/A,,Clear,0,2012-11-09 01:25:00
8:05 PM,37.4,35.6,93,30.20,10.0,Calm,Calm,-,N/A,,Clear,0,2012-11-09 02:05:00
8:25 PM,39.2,35.6,87,30.20,10.0,Calm,Calm,-,N/A,,Clear,0,2012-11-09 02:25:00
8:45 PM,37.4,32.0,81,30.20,10.0,SE,3.5,-,N/A,,Clear,130,2012-11-09 02:45:00
9:05 PM,37.4,33.8,87,30.20,10.0,Calm,Calm,-,N/A,,Clear,0,2012-11-09 03:05:00
9:25 PM,37.4,33.8,87,30.20,10.0,Calm,Calm,-,N/A,,Clear,0,2012-11-09 03:25:00
9:45 PM,35.6,32.0,87,30.20,8.0,Calm,Calm,-,N/A,,Clear,0,2012-11-09 03:45:00
10:05 PM,35.6,33.8,93,30.19,10.0,Calm,Calm,-,N/A,,Clear,0,2012-11-09 04:05:00
10:25 PM,33.8,32.0,93,30.19,8.0,Calm,Calm,-,N/A,,Clear,0,2012-11-09 04:25:00
10:45 PM,35.6,32.0,87,30.19,10.0,Calm,Calm,-,N/A,,Clear,0,2012-11-09 04:45:00
11:05 PM,35.6,32.0,87,30.19,7.0,Calm,Calm,-,N/A,,Clear,0,2012-11-09 05:05:00
11:25 PM,33.8,32.0,93,30.18,8.0,SSE,3.5,-,N/A,,Clear,150,2012-11-09 05:25:00
11:45 PM,33.8,32.0,93,30.18,7.0,Calm,Calm,-,N/A,,Clear,0,2012-11-09 05:45:00